Flight Track Log - Related Links

Times and Time Zones

All times are in EDT time to prevent confusion due to time zone crossing. See the AAY817 flight status page for this flight to view local times or setup timezone preferences in your user account.

Time Position Orientation Groundspeed Altitude Reporting Facility
EDT Latitude Longitude Course Direction KTS MPH feet Rate Location/Type
Fri 02:57:50 PM 38.3431 -82.6083 180° South 183 211 3,200  Level Indianapolis Center
Fri 02:58:52 PM 38.2769 -82.6356 198° South 242 278 5,900 2,806 Climbing Indianapolis Center
Fri 02:59:54 PM 38.2117 -82.6711 203° Southwest 250 288 9,000 2,855 Climbing Indianapolis Center
Fri 03:00:56 PM 38.1303 -82.7100 201° Southwest 264 304 11,800 2,274 Climbing Indianapolis Center
Fri 03:01:58 PM 38.0397 -82.6950 173° South 315 362 13,700 2,226 Climbing Indianapolis Center
Fri 03:03:00 PM 37.7470 -82.5500 180° South  Level FlightAware Approximate
Fri 03:03:00 PM 37.9456 -82.7114 188° South 336 387 16,400  Level Indianapolis Center
Fri 03:04:02 PM 37.8492 -82.7206 184° South 339 390 18,700 2,371 Climbing Indianapolis Center
Fri 03:05:04 PM 37.7511 -82.7161 178° South 346 398 21,300 2,256 Climbing Indianapolis Center
Fri 03:06:07 PM 37.6550 -82.7131 179° South 346 398 23,400 1,968 Climbing Indianapolis Center
Fri 03:07:09 PM 37.5422 -82.7108 179° South 346 398 25,400 1,742 Climbing Indianapolis Center
Fri 03:08:11 PM 37.4428 -82.7086 179° South 351 404 27,000 1,306 Climbing Indianapolis Center
Fri 03:09:13 PM 37.3417 -82.7072 179° South 357 411 28,100 919 Climbing Indianapolis Center
Fri 03:10:15 PM 37.2411 -82.7344 192° South 363 418 28,900 823 Climbing Indianapolis Center
Fri 03:11:17 PM 37.1375 -82.7617 192° South 373 429 29,800 871 Climbing Indianapolis Center
Fri 03:12:19 PM 37.0131 -82.8014 194° South 388 447 30,700 919 Climbing Indianapolis Center
Fri 03:13:21 PM 36.9039 -82.8372 195° South 394 453 31,700 864 Climbing Indianapolis Center
Fri 03:14:24 PM 36.7922 -82.8739 195° South 394 453 32,500 1,008 Climbing Indianapolis Center
Fri 03:15:26 PM 36.6867 -82.9094 195° South 393 452 33,800 1,355 Climbing Indianapolis Center
Fri 03:16:28 PM 36.5831 -82.9403 193° South 386 444 35,300 1,065 Climbing Indianapolis Center
Fri 03:17:30 PM 36.4808 -82.9381 179° South 374 430 36,000 339 Climbing Indianapolis Center
Fri 03:18:32 PM 36.3731 -82.9306 177° South 380 437 36,000  Level Indianapolis Center
Fri 03:19:06 PM 36.2972 -82.9258 177° South 386 444 36,000  Level Atlanta Center
Fri 03:20:06 PM 36.1928 -82.9197 177° South 386 444 36,000  Level Atlanta Center
Fri 03:21:06 PM 36.0864 -82.9108 176° South 386 444 36,000  Level Atlanta Center
Fri 03:22:06 PM 35.9800 -82.9044 177° South 386 444 36,000  Level Atlanta Center
Fri 03:23:06 PM 35.8714 -82.8983 177° South 386 444 36,000  Level Atlanta Center
Fri 03:24:06 PM 35.7631 -82.8897 176° South 386 444 36,000  Level Atlanta Center
Fri 03:25:06 PM 35.6564 -82.8836 177° South 391 450 36,000  Level Atlanta Center
Fri 03:26:06 PM 35.5481 -82.8772 177° South 391 450 36,000  Level Atlanta Center
Fri 03:28:47 PM 34.9207 -82.8318 177° South 390 449 36,000 31 Level FlightAware ADS-B (KDZJ)
Fri 03:29:20 PM 34.8596 -82.8276 177° South 388 447 36,100 91 Climbing FlightAware ADS-B (KDZJ)
Fri 03:29:53 PM 34.8009 -82.8236 177° South 386 444 36,100 -95 Level FlightAware ADS-B (KDZJ)
Fri 03:30:23 PM 34.7459 -82.8199 177° South 391 450 36,000 -53 Descending FlightAware ADS-B (KDZJ)
Fri 03:31:46 PM 34.5960 -82.8103 177° South 387 445 36,000  Level FlightAware ADS-B (KDZJ)
Fri 03:32:34 PM 34.5106 -82.8045 177° South 387 445 36,000 75 Level FlightAware ADS-B (KDZJ)
Fri 03:33:06 PM 34.7942 -82.8247 177° South 396 456 36,100  Climbing Atlanta Center
Fri 03:34:06 PM 34.6856 -82.8186 177° South 401 461 36,000 -50 Descending Atlanta Center
Fri 03:35:06 PM 34.5769 -82.8103 176° South 396 456 36,000  Level Atlanta Center
Fri 03:36:06 PM 34.4706 -82.8067 178° South 396 456 36,000  Level Atlanta Center
Fri 03:37:06 PM 34.3639 -82.7981 176° South 391 450 36,000  Level Atlanta Center
Fri 03:38:06 PM 34.2533 -82.7897 176° South 391 450 36,000  Level Atlanta Center
Fri 03:39:06 PM 34.1447 -82.7839 177° South 391 450 36,000  Level Atlanta Center
Fri 03:40:06 PM 34.0361 -82.7778 177° South 391 450 36,000  Level Atlanta Center
Fri 03:41:06 PM 33.9381 -82.7694 176° South 396 456 36,000  Level Atlanta Center
Fri 03:42:06 PM 33.8272 -82.7636 177° South 396 456 36,000  Level Atlanta Center
Fri 03:43:06 PM 33.7167 -82.7603 179° South 402 463 36,000  Level Atlanta Center
Fri 03:44:06 PM 33.6100 -82.7492 175° South 402 463 36,000 -50 Level Atlanta Center
Fri 03:45:06 PM 33.5036 -82.7408 176° South 397 457 35,900  Descending Atlanta Center
Fri 03:46:06 PM 33.3969 -82.7350 177° South 392 451 36,000 50 Climbing Atlanta Center
Fri 03:47:06 PM 33.2883 -82.7267 176° South 392 451 36,000  Level Atlanta Center
Fri 03:48:06 PM 33.1694 -82.7211 178° South 392 451 36,000  Level Atlanta Center
Fri 03:49:06 PM 33.0650 -82.7128 176° South 386 444 36,000  Level Atlanta Center
Fri 03:50:06 PM 32.9583 -82.7044 176° South 386 444 36,000  Level Atlanta Center
Fri 03:51:06 PM 32.8561 -82.6986 177° South 386 444 36,000  Level Atlanta Center
Fri 03:52:06 PM 32.7514 -82.6903 176° South 386 444 36,000  Level Atlanta Center
Fri 03:53:06 PM 32.6450 -82.6869 178° South 386 444 36,000  Level Atlanta Center
Fri 03:54:06 PM 32.5428 -82.6786 176° South 386 444 36,000  Level Atlanta Center
Fri 03:55:46 PM 32.3792 -82.6664 176° South 391 450 36,000  Level Jacksonville Center
Fri 03:56:46 PM 32.2728 -82.6592 177° South 384 442 36,000  Level Jacksonville Center
Fri 03:57:46 PM 32.1683 -82.6544 178° South 384 442 36,000  Level Jacksonville Center
Fri 03:58:46 PM 32.0639 -82.6500 178° South 384 442 36,000  Level Jacksonville Center
Fri 03:59:46 PM 31.9597 -82.6428 177° South 384 442 36,000  Level Jacksonville Center
Fri 04:00:46 PM 31.8531 -82.6358 177° South 384 442 36,000  Level Jacksonville Center
Fri 04:01:46 PM 31.7444 -82.6264 176° South 384 442 36,000  Level Jacksonville Center
Fri 04:02:46 PM 31.6422 -82.6217 178° South 384 442 36,000  Level Jacksonville Center
Fri 04:03:46 PM 31.5356 -82.6147 177° South 384 442 36,000  Level Jacksonville Center
Fri 04:04:46 PM 31.4314 -82.6078 177° South 384 442 36,000  Level Jacksonville Center
Fri 04:05:46 PM 31.3122 -82.6081 180° South 384 442 36,000  Level Jacksonville Center
Fri 04:06:46 PM 31.2058 -82.5986 176° South 384 442 36,000  Level Jacksonville Center
Fri 04:07:46 PM 31.1014 -82.5942 178° South 384 442 36,000 -16 Level Jacksonville Center
Fri 04:13:07 PM 30.5217 -82.5198 171° South 394 453 35,900  Descending FlightAware ADS-B
Fri 04:13:57 PM 30.4339 -82.5045 171° South 396 456 36,000  Climbing FlightAware ADS-B
Fri 04:16:03 PM 30.2022 -82.4643 172° South 399 459 35,900 -35 Descending FlightAware ADS-B
Fri 04:16:50 PM 30.1147 -82.4492 171° South 400 460 35,900 -111 Level FlightAware ADS-B
Fri 04:17:51 PM 30.0018 -82.4295 171° South 403 464 35,700 -1,369 Descending FlightAware ADS-B
Fri 04:19:19 PM 29.8428 -82.4023 172° South 398 458 32,500 -2,215 Descending FlightAware ADS-B
Fri 04:20:01 PM 29.7661 -82.3890 171° South 393 452 30,900 -2,353 Descending FlightAware ADS-B
Fri 04:21:01 PM 29.6573 -82.3702 172° South 385 443 28,500 -2,094 Descending FlightAware ADS-B
Fri 04:22:30 PM 29.5071 -82.3474 175° South 357 411 25,700 -1,846 Descending FlightAware ADS-B
Fri 04:23:11 PM 29.4383 -82.3402 175° South 355 409 24,500 -1,571 Descending FlightAware ADS-B
Fri 04:23:54 PM 29.3897 -82.3344 174° South 348 400 23,500 -1,667 Descending FlightAware ADS-B
Fri 04:24:59 PM 29.2622 -82.3196 174° South 400 460 21,500 -1,442 Descending FlightAware ADS-B
Fri 04:25:38 PM 29.1834 -82.3098 174° South 400 460 21,000 -761 Descending FlightAware ADS-B
Fri 04:26:10 PM 29.1248 -82.3026 174° South 393 452 20,600 -1,909 Descending FlightAware ADS-B
Fri 04:27:06 PM 29.0248 -82.2907 174° South 388 447 18,200 -2,760 Descending FlightAware ADS-B
Fri 04:27:50 PM 28.9459 -82.2816 174° South 390 449 16,000 -2,271 Descending FlightAware ADS-B
Fri 04:29:26 PM 28.7768 -82.2613 174° South 373 429 12,900 -1,378 Descending FlightAware ADS-B
Fri 04:30:18 PM 28.7179 -82.2565 180° South 371 427 12,600 -485 Descending FlightAware ADS-B
Fri 04:31:42 PM 28.5561 -82.2542 182° South 367 422 11,800 -647 Descending FlightAware ADS-B
Fri 04:32:00 PM 28.5135 -82.2636 203° Southwest 355 409 11,500 -818 Descending FlightAware ADS-B
Fri 04:32:26 PM 28.4911 -82.2851 236° Southwest 342 394 11,200 -766 Descending FlightAware ADS-B
Fri 04:32:47 PM 28.4773 -82.3323 265° West 338 389 10,900 -815 Descending FlightAware ADS-B
Fri 04:33:47 PM 28.4706 -82.4297 265° West 341 392 10,100 -492 Descending Miami Center
Fri 04:34:49 PM 28.4294 -82.5267 244° Southwest 345 397 9,900 -96 Descending Miami Center
Fri 04:35:52 PM 28.3875 -82.6200 243° Southwest 338 389 9,900 -48 Level Miami Center
Fri 04:36:54 PM 28.3147 -82.6722 212° Southwest 309 356 9,800 -919 Descending Miami Center
Fri 04:37:56 PM 28.2347 -82.7267 211° Southwest 283 326 8,000 -1,534 Descending Miami Center
Fri 04:39:07 PM 28.1500 -82.7833 211° Southwest 285 328 6,400 -1,200 Descending Tampa TRACON
Fri 04:40:01 PM 28.0833 -82.7833 180° South 285 328 5,500 -1,000 Descending Tampa TRACON
Fri 04:41:01 PM 28.0000 -82.7667 170° South 273 314 4,500 -1,050 Descending Tampa TRACON
Fri 04:42:01 PM 27.9333 -82.7667 180° South 257 296 3,400 -789 Descending Tampa TRACON
Fri 04:42:55 PM 27.8667 -82.7667 180° South 240 276 3,000 -200 Descending Tampa TRACON
Fri 04:44:01 PM 27.8000 -82.7500 168° South 208 239 3,000 -200 Level Tampa TRACON
Fri 04:44:55 PM 27.7667 -82.7333 156° South 187 215 2,600 -400 Descending Tampa TRACON
Fri 04:46:01 PM 27.7667 -82.6833 90° East 159 183 2,200 -476 Descending Tampa TRACON
Fri 04:47:01 PM 27.8167 -82.6667 16° North 153 176 1,600 -650 Descending Tampa TRACON
Fri 04:48:01 PM 27.8500 -82.6833 336° Northwest 130 150 900 -645 Descending Tampa TRACON
Fri 04:49:02 PM 27.8833 -82.6833 360° North 124 143 300 -590 Descending Tampa TRACON

Login

Don't have an account? Register now (free) for customized features, flight alerts, and more!